createdAt,value
2018-08-24T00:00:04.309Z,21.88
2018-08-24T00:01:04.316Z,21.72
2018-08-24T00:02:04.319Z,21.75
2018-08-24T00:03:04.324Z,21.67
2018-08-24T00:04:04.329Z,21.72
2018-08-24T00:05:04.333Z,21.72
2018-08-24T00:06:04.339Z,21.71
2018-08-24T00:07:04.343Z,21.66
2018-08-24T00:08:04.345Z,21.71
2018-08-24T00:09:04.357Z,21.69
2018-08-24T00:10:04.358Z,21.69
2018-08-24T00:11:04.356Z,21.67
2018-08-24T00:12:04.368Z,21.67
2018-08-24T00:13:04.364Z,21.74
2018-08-24T00:14:04.372Z,21.64
2018-08-24T00:15:04.375Z,21.64
2018-08-24T00:16:04.386Z,21.54
2018-08-24T00:17:04.390Z,21.54
2018-08-24T00:18:04.390Z,21.50
2018-08-24T00:19:04.395Z,21.59
2018-08-24T00:20:04.415Z,21.46
2018-08-24T00:21:04.400Z,21.44
2018-08-24T00:22:04.408Z,21.39
2018-08-24T00:23:04.411Z,21.36
2018-08-24T00:24:04.434Z,21.32
2018-08-24T00:25:04.418Z,21.34
2018-08-24T00:26:04.430Z,21.21
2018-08-24T00:27:04.427Z,21.30
2018-08-24T00:28:04.431Z,21.32
2018-08-24T00:29:04.433Z,21.27
2018-08-24T00:30:04.441Z,21.14
2018-08-24T00:31:04.470Z,21.17
2018-08-24T00:32:04.459Z,21.13
2018-08-24T00:33:04.451Z,21.05
2018-08-24T00:34:04.454Z,21.05
2018-08-24T00:35:04.461Z,21.02
2018-08-24T00:36:04.467Z,20.99
2018-08-24T00:37:04.472Z,20.98
2018-08-24T00:38:04.472Z,20.87
2018-08-24T00:39:04.478Z,20.96
2018-08-24T00:40:04.484Z,20.93
2018-08-24T00:41:04.488Z,20.90
2018-08-24T00:42:04.497Z,20.81
2018-08-24T00:43:04.497Z,20.81
2018-08-24T00:44:04.496Z,20.76
2018-08-24T00:45:04.506Z,20.77
2018-08-24T00:46:04.506Z,20.76
2018-08-24T00:47:04.531Z,20.83
2018-08-24T00:48:04.517Z,20.66
2018-08-24T00:49:04.522Z,20.74
2018-08-24T00:50:04.529Z,20.69
2018-08-24T00:51:04.536Z,20.65
2018-08-24T00:52:04.528Z,20.61
2018-08-24T00:53:04.541Z,20.53
2018-08-24T00:54:04.542Z,20.50
2018-08-24T00:55:04.539Z,20.31
2018-08-24T00:56:04.548Z,20.27
2018-08-24T00:57:04.572Z,20.20
2018-08-24T00:58:04.562Z,20.20
2018-08-24T00:59:04.556Z,20.05
2018-08-24T01:00:04.580Z,20.10
2018-08-24T01:01:04.578Z,19.97
2018-08-24T01:02:04.619Z,19.98
2018-08-24T01:03:04.571Z,19.91
2018-08-24T01:04:04.585Z,19.98
2018-08-24T01:05:04.582Z,19.93
2018-08-24T01:06:04.589Z,19.97
2018-08-24T01:07:04.592Z,19.97
2018-08-24T01:08:04.601Z,20.00
2018-08-24T01:09:04.597Z,20.05
2018-08-24T01:10:04.600Z,19.98
2018-08-24T01:11:04.606Z,19.98
2018-08-24T01:12:04.612Z,19.98
2018-08-24T01:13:04.612Z,19.94
2018-08-24T01:14:04.620Z,20.05
2018-08-24T01:15:04.620Z,20.10
2018-08-24T01:16:04.625Z,20.08
2018-08-24T01:17:04.625Z,20.21
2018-08-24T01:18:04.631Z,20.18
2018-08-24T01:19:04.634Z,20.23
2018-08-24T01:20:04.640Z,20.08
2018-08-24T01:21:04.648Z,20.12
2018-08-24T01:22:04.647Z,19.95
2018-08-24T01:23:04.653Z,19.97
2018-08-24T01:24:04.657Z,19.97
2018-08-24T01:25:04.657Z,19.95
2018-08-24T01:26:04.663Z,19.87
2018-08-24T01:27:04.666Z,19.80
2018-08-24T01:28:04.673Z,19.70
2018-08-24T01:29:04.678Z,19.69
2018-08-24T01:30:04.678Z,19.72
2018-08-24T01:31:04.684Z,19.68
2018-08-24T01:32:04.688Z,19.68
2018-08-24T01:33:04.693Z,19.66
2018-08-24T01:34:04.700Z,19.70
2018-08-24T01:35:04.694Z,19.60
2018-08-24T01:36:04.702Z,19.58
2018-08-24T01:37:04.702Z,19.66
2018-08-24T01:38:04.709Z,19.53
2018-08-24T01:39:04.714Z,19.63
2018-08-24T01:40:04.716Z,19.47
2018-08-24T01:41:04.718Z,19.46
2018-08-24T01:42:04.722Z,19.50
2018-08-24T01:43:04.732Z,19.39
2018-08-24T01:44:04.729Z,19.58
2018-08-24T01:45:04.733Z,19.57
2018-08-24T01:46:04.752Z,19.68
2018-08-24T01:47:04.779Z,19.72
2018-08-24T01:48:04.745Z,19.68
2018-08-24T01:49:04.753Z,19.73
2018-08-24T01:50:04.752Z,19.58
2018-08-24T01:51:04.755Z,19.65
2018-08-24T01:52:04.779Z,19.69
2018-08-24T01:53:04.766Z,19.63
2018-08-24T01:54:04.767Z,19.54
2018-08-24T01:55:04.771Z,19.48
2018-08-24T01:56:04.781Z,19.51
2018-08-24T01:57:04.782Z,19.48
2018-08-24T01:58:04.781Z,19.61
2018-08-24T01:59:04.816Z,19.69
2018-08-24T02:00:04.789Z,19.72
2018-08-24T02:01:04.793Z,19.72
2018-08-24T02:02:04.800Z,19.75
2018-08-24T02:03:04.799Z,19.91
2018-08-24T02:04:04.804Z,20.08
2018-08-24T02:05:04.806Z,20.16
2018-08-24T02:06:04.813Z,20.21
2018-08-24T02:07:04.814Z,20.27
2018-08-24T02:08:04.819Z,20.30
2018-08-24T02:09:04.820Z,20.35
2018-08-24T02:10:04.824Z,20.41
2018-08-24T02:11:04.828Z,20.47
2018-08-24T02:12:04.839Z,20.54
2018-08-24T02:13:04.836Z,20.51
2018-08-24T02:14:04.838Z,20.46
2018-08-24T02:15:04.843Z,20.54
2018-08-24T02:16:04.848Z,20.54
2018-08-24T02:17:04.852Z,20.56
2018-08-24T02:18:04.857Z,20.61
2018-08-24T02:19:04.856Z,20.61
2018-08-24T02:20:04.864Z,20.58
2018-08-24T02:21:04.866Z,20.58
2018-08-24T02:22:04.871Z,20.54
2018-08-24T02:23:04.872Z,20.64
2018-08-24T02:24:04.882Z,20.64
2018-08-24T02:25:04.882Z,20.65
2018-08-24T02:26:04.885Z,20.76
2018-08-24T02:27:04.890Z,20.81
2018-08-24T02:28:04.896Z,20.90
2018-08-24T02:29:04.902Z,20.98
2018-08-24T02:30:04.903Z,20.90
2018-08-24T02:31:04.939Z,20.99
2018-08-24T02:32:04.911Z,20.90
2018-08-24T02:33:04.914Z,20.84
2018-08-24T02:34:04.920Z,20.86
2018-08-24T02:35:04.938Z,20.79
2018-08-24T02:36:04.936Z,20.81
2018-08-24T02:37:04.934Z,20.79
2018-08-24T02:38:04.936Z,20.65
2018-08-24T02:39:04.935Z,20.61
2018-08-24T02:40:04.941Z,20.61
2018-08-24T02:41:04.944Z,20.51
2018-08-24T02:42:04.948Z,20.51
2018-08-24T02:43:04.953Z,20.39
2018-08-24T02:44:04.956Z,20.33
2018-08-24T02:45:05.012Z,20.41
2018-08-24T02:46:04.969Z,20.35
2018-08-24T02:47:04.968Z,20.39
2018-08-24T02:48:04.972Z,20.41
2018-08-24T02:49:04.974Z,20.49
2018-08-24T02:50:04.979Z,20.51
2018-08-24T02:51:04.986Z,20.54
2018-08-24T02:52:04.986Z,20.53
2018-08-24T02:53:04.992Z,20.47
2018-08-24T02:54:04.993Z,20.49
2018-08-24T02:55:04.995Z,20.50
2018-08-24T02:56:05.004Z,20.47
2018-08-24T02:57:05.007Z,20.46
2018-08-24T02:58:05.010Z,20.46
2018-08-24T02:59:05.014Z,20.35
2018-08-24T03:00:05.017Z,20.27
2018-08-24T03:01:05.037Z,20.27
2018-08-24T03:02:05.026Z,20.23
2018-08-24T03:03:05.029Z,20.21
2018-08-24T03:04:05.034Z,20.23
2018-08-24T03:05:05.150Z,20.20
2018-08-24T03:06:05.039Z,20.09
2018-08-24T03:07:05.049Z,20.06
2018-08-24T03:08:05.100Z,19.93
2018-08-24T03:09:06.039Z,19.87
2018-08-24T03:10:05.095Z,19.84
2018-08-24T03:11:05.062Z,19.80
2018-08-24T03:12:05.066Z,19.73
2018-08-24T03:13:05.067Z,19.69
2018-08-24T03:14:05.073Z,19.66
2018-08-24T03:15:05.078Z,19.68
2018-08-24T03:16:05.135Z,19.61
2018-08-24T03:17:05.082Z,19.58
2018-08-24T03:18:05.089Z,19.57
2018-08-24T03:19:05.105Z,19.66
2018-08-24T03:20:05.094Z,19.66
2018-08-24T03:21:05.099Z,19.66
2018-08-24T03:22:05.106Z,19.76
2018-08-24T03:23:05.108Z,19.78
2018-08-24T03:24:05.125Z,19.57
2018-08-24T03:25:05.113Z,19.66
2018-08-24T03:26:05.116Z,19.54
2018-08-24T03:27:05.120Z,19.47
2018-08-24T03:28:05.125Z,19.48
2018-08-24T03:29:05.127Z,19.39
2018-08-24T03:30:05.132Z,19.32
2018-08-24T03:31:05.133Z,19.23
2018-08-24T03:32:05.138Z,19.24
2018-08-24T03:33:05.139Z,19.14
2018-08-24T03:34:05.145Z,19.14
2018-08-24T03:35:05.150Z,19.15
2018-08-24T03:36:05.151Z,19.11
2018-08-24T03:37:05.155Z,19.08
2018-08-24T03:38:05.166Z,19.06
2018-08-24T03:39:05.163Z,19.11
2018-08-24T03:40:05.166Z,18.99
2018-08-24T03:41:05.170Z,18.95
2018-08-24T03:42:05.177Z,18.90
2018-08-24T03:43:05.175Z,18.95
2018-08-24T03:44:05.179Z,18.90
2018-08-24T03:45:05.183Z,18.90
2018-08-24T03:46:05.190Z,18.83
2018-08-24T03:47:05.189Z,18.77
2018-08-24T03:48:05.196Z,18.83
2018-08-24T03:49:05.196Z,18.83
2018-08-24T03:50:05.201Z,18.80
2018-08-24T03:51:05.206Z,18.77
2018-08-24T03:52:05.207Z,18.68
2018-08-24T03:53:05.219Z,18.76
2018-08-24T03:54:05.219Z,18.70
2018-08-24T03:55:05.216Z,18.64
2018-08-24T03:56:05.217Z,18.65
2018-08-24T03:57:05.226Z,18.64
2018-08-24T03:58:05.224Z,18.55
2018-08-24T03:59:05.227Z,18.57
2018-08-24T04:00:05.234Z,18.50
2018-08-24T04:01:05.236Z,18.50
2018-08-24T04:02:05.236Z,18.42
2018-08-24T04:03:05.240Z,18.47
2018-08-24T04:04:05.245Z,18.39
2018-08-24T04:05:05.251Z,18.44
2018-08-24T04:06:05.252Z,18.40
2018-08-24T04:07:05.259Z,18.46
2018-08-24T04:08:05.263Z,18.43
2018-08-24T04:09:05.259Z,18.43
2018-08-24T04:10:05.268Z,18.46
2018-08-24T04:11:05.268Z,18.49
2018-08-24T04:12:05.270Z,18.46
2018-08-24T04:13:05.276Z,18.42
2018-08-24T04:14:06.109Z,18.42
2018-08-24T04:15:05.280Z,18.34
2018-08-24T04:16:05.349Z,18.31
2018-08-24T04:17:05.340Z,18.33
2018-08-24T04:18:05.288Z,18.34
2018-08-24T04:19:05.347Z,18.27
2018-08-24T04:20:06.659Z,18.36
2018-08-24T04:21:05.297Z,18.29
2018-08-24T04:22:05.386Z,18.29
2018-08-24T04:23:05.303Z,18.25
2018-08-24T04:24:05.305Z,18.28
2018-08-24T04:25:05.307Z,18.29
2018-08-24T04:26:05.371Z,18.29
2018-08-24T04:27:05.313Z,18.34
2018-08-24T04:28:05.322Z,18.33
2018-08-24T04:29:05.316Z,18.36
2018-08-24T04:30:05.322Z,18.33
2018-08-24T04:31:05.387Z,18.37
2018-08-24T04:32:05.330Z,18.40
2018-08-24T04:33:05.331Z,18.40
2018-08-24T04:34:05.366Z,18.34
2018-08-24T04:35:58.230Z,18.39
2018-08-24T04:36:58.214Z,18.36
2018-08-24T04:38:51.123Z,18.34
2018-08-24T04:39:51.080Z,18.27
2018-08-24T04:41:43.978Z,18.33
2018-08-24T04:42:43.965Z,18.31
2018-08-24T04:44:36.899Z,18.29
2018-08-24T04:45:36.901Z,18.31
2018-08-24T04:47:29.746Z,18.36
2018-08-24T04:48:29.745Z,18.36
2018-08-24T04:50:22.692Z,18.37
2018-08-24T04:51:22.661Z,18.39
2018-08-24T04:53:15.517Z,18.43
2018-08-24T04:54:15.511Z,18.49
2018-08-24T04:56:08.388Z,18.57
2018-08-24T04:57:08.364Z,18.50
2018-08-24T04:58:08.406Z,18.57
2018-08-24T04:59:08.369Z,18.49
2018-08-24T05:00:08.372Z,18.67
2018-08-24T05:01:08.375Z,18.62
2018-08-24T05:02:08.380Z,18.62
2018-08-24T05:03:08.388Z,18.61
2018-08-24T05:04:08.383Z,18.64
2018-08-24T05:05:08.385Z,18.61
2018-08-24T05:06:08.391Z,18.64
2018-08-24T05:07:08.396Z,18.64
2018-08-24T05:08:08.437Z,18.65
2018-08-24T05:09:08.398Z,18.70
2018-08-24T05:10:08.448Z,18.73
2018-08-24T05:11:08.417Z,18.82
2018-08-24T05:12:08.406Z,18.94
2018-08-24T05:13:08.412Z,18.90
2018-08-24T05:14:08.414Z,18.91
2018-08-24T05:15:08.418Z,19.02
2018-08-24T05:16:08.420Z,19.02
2018-08-24T05:17:08.424Z,19.11
2018-08-24T05:18:08.426Z,19.17
2018-08-24T05:19:08.429Z,19.21
2018-08-24T05:20:08.435Z,19.23
2018-08-24T05:21:08.443Z,19.33
2018-08-24T05:22:08.438Z,19.36
2018-08-24T05:23:08.444Z,19.39
2018-08-24T05:24:08.449Z,19.35
2018-08-24T05:25:08.450Z,19.48
2018-08-24T05:26:08.451Z,19.42
2018-08-24T05:27:08.455Z,19.50
2018-08-24T05:28:08.505Z,19.42
2018-08-24T05:29:08.460Z,19.50
2018-08-24T05:30:08.464Z,19.48
2018-08-24T05:31:08.469Z,19.55
2018-08-24T05:32:08.469Z,19.69
2018-08-24T05:33:08.474Z,19.69
2018-08-24T05:34:08.476Z,19.72
2018-08-24T05:35:08.480Z,19.79
2018-08-24T05:36:08.481Z,19.87
2018-08-24T05:37:08.486Z,19.86
2018-08-24T05:38:08.492Z,19.93
2018-08-24T05:39:08.493Z,20.03
2018-08-24T05:40:08.497Z,20.03
2018-08-24T05:41:08.506Z,20.05
2018-08-24T05:42:08.505Z,20.15
2018-08-24T05:43:08.507Z,20.18
2018-08-24T05:44:08.511Z,20.21
2018-08-24T05:45:08.514Z,20.25
2018-08-24T05:46:08.521Z,20.27
2018-08-24T05:47:08.519Z,20.34
2018-08-24T05:48:08.527Z,20.49
2018-08-24T05:49:08.532Z,20.51
2018-08-24T05:50:08.532Z,20.62
2018-08-24T05:51:08.535Z,20.59
2018-08-24T05:52:08.539Z,20.62
2018-08-24T05:53:08.543Z,20.69
2018-08-24T05:54:08.555Z,20.77
2018-08-24T05:55:08.550Z,20.83
2018-08-24T05:56:08.555Z,20.83
2018-08-24T05:57:08.560Z,20.90
2018-08-24T05:58:08.561Z,21.02
2018-08-24T05:59:08.568Z,20.99
2018-08-24T06:00:08.570Z,21.08
2018-08-24T06:01:08.575Z,21.13
2018-08-24T06:02:08.580Z,21.24
2018-08-24T06:03:08.581Z,21.21
2018-08-24T06:04:08.596Z,21.23
2018-08-24T06:05:08.592Z,21.30
2018-08-24T06:06:08.597Z,21.34
2018-08-24T06:07:08.599Z,21.45
2018-08-24T06:08:08.600Z,21.56
2018-08-24T06:09:08.606Z,21.50
2018-08-24T06:10:08.612Z,21.67
2018-08-24T06:11:08.613Z,21.63
2018-08-24T06:12:08.617Z,21.72
2018-08-24T06:13:08.622Z,21.72
2018-08-24T06:14:08.626Z,21.79
2018-08-24T06:15:08.631Z,21.99
2018-08-24T06:16:08.669Z,21.99
2018-08-24T06:17:08.641Z,21.81
2018-08-24T06:18:08.648Z,21.71
2018-08-24T06:19:08.649Z,21.54
2018-08-24T06:20:08.663Z,21.54
2018-08-24T06:21:08.659Z,21.66
2018-08-24T06:22:08.665Z,21.64
2018-08-24T06:23:08.670Z,21.56
2018-08-24T06:24:08.669Z,21.53
2018-08-24T06:25:08.674Z,21.42
2018-08-24T06:26:08.678Z,21.36
2018-08-24T06:27:08.683Z,21.29
2018-08-24T06:28:08.688Z,21.24
2018-08-24T06:29:08.692Z,21.21
2018-08-24T06:30:08.697Z,21.21
2018-08-24T06:31:08.700Z,21.06
2018-08-24T06:32:08.703Z,21.14
2018-08-24T06:33:08.709Z,21.23
2018-08-24T06:34:08.726Z,21.26
2018-08-24T06:35:08.719Z,21.36
2018-08-24T06:36:08.721Z,21.46
2018-08-24T06:37:08.727Z,21.42
2018-08-24T06:38:08.731Z,21.41
2018-08-24T06:39:08.735Z,21.64
2018-08-24T06:40:08.740Z,21.51
2018-08-24T06:41:08.755Z,21.69
2018-08-24T06:42:08.748Z,21.98
2018-08-24T06:43:08.751Z,22.41
2018-08-24T06:44:08.756Z,22.56
2018-08-24T06:45:08.763Z,22.71
2018-08-24T06:46:08.765Z,22.60
2018-08-24T06:47:08.802Z,22.31
2018-08-24T06:48:08.777Z,22.14
2018-08-24T06:49:08.780Z,22.07
2018-08-24T06:50:08.784Z,22.23
2018-08-24T06:51:08.789Z,22.32
2018-08-24T06:52:08.795Z,22.75
2018-08-24T06:53:08.864Z,22.89
2018-08-24T06:54:08.804Z,22.96
2018-08-24T06:55:08.808Z,22.92
2018-08-24T06:56:08.812Z,22.53
2018-08-24T06:57:08.817Z,22.27
2018-08-24T06:58:08.821Z,22.34
2018-08-24T06:59:08.833Z,22.49
2018-08-24T07:00:08.836Z,22.29
2018-08-24T07:01:08.839Z,22.02
2018-08-24T07:02:08.840Z,21.91
2018-08-24T07:03:08.849Z,21.79
2018-08-24T07:04:08.852Z,21.95
2018-08-24T07:05:08.858Z,22.07
2018-08-24T07:06:08.860Z,22.01
2018-08-24T07:07:08.878Z,22.09
2018-08-24T07:08:08.870Z,22.12
2018-08-24T07:09:08.877Z,22.02
2018-08-24T07:10:08.883Z,22.27
2018-08-24T07:11:08.884Z,22.49
2018-08-24T07:12:08.889Z,22.80
2018-08-24T07:13:08.977Z,23.08
2018-08-24T07:14:08.900Z,23.35
2018-08-24T07:15:08.906Z,23.23
2018-08-24T07:16:08.909Z,23.27
2018-08-24T07:17:08.914Z,23.80
2018-08-24T07:18:08.920Z,24.08
2018-08-24T07:19:08.924Z,24.38
2018-08-24T07:20:08.929Z,24.61
2018-08-24T07:21:08.932Z,24.52
2018-08-24T07:22:08.940Z,24.04
2018-08-24T07:23:08.946Z,24.01
2018-08-24T07:24:08.949Z,23.79
2018-08-24T07:25:09.012Z,23.55
2018-08-24T07:26:08.962Z,23.34
2018-08-24T07:27:08.965Z,23.60
2018-08-24T07:28:08.971Z,23.90
2018-08-24T07:29:08.973Z,23.85
2018-08-24T07:30:08.980Z,24.02
2018-08-24T07:31:09.015Z,23.85
2018-08-24T07:32:08.994Z,23.76
2018-08-24T07:33:08.999Z,23.67
2018-08-24T07:34:09.006Z,23.65
2018-08-24T07:35:09.014Z,23.79
2018-08-24T07:36:09.045Z,24.00
2018-08-24T07:37:09.020Z,23.97
2018-08-24T07:38:09.028Z,23.85
2018-08-24T07:39:09.097Z,23.75
2018-08-24T07:40:09.045Z,23.92
2018-08-24T07:41:09.047Z,24.04
2018-08-24T07:42:09.053Z,24.16
2018-08-24T07:43:09.071Z,24.13
2018-08-24T07:44:09.062Z,24.23
2018-08-24T07:45:09.073Z,24.20
2018-08-24T07:46:09.076Z,23.95
2018-08-24T07:47:09.081Z,23.71
2018-08-24T07:48:09.092Z,23.47
2018-08-24T07:49:09.089Z,23.52
2018-08-24T07:50:09.098Z,23.47
2018-08-24T07:51:09.121Z,23.31
2018-08-24T07:52:09.111Z,23.23
2018-08-24T07:53:09.111Z,23.46
2018-08-24T07:54:09.119Z,23.64
2018-08-24T07:55:09.121Z,23.43
2018-08-24T07:56:09.132Z,23.40
2018-08-24T07:57:09.278Z,23.61
2018-08-24T07:58:09.326Z,23.79
2018-08-24T07:59:09.151Z,23.60
2018-08-24T08:00:09.190Z,23.79
2018-08-24T08:01:09.192Z,23.55
2018-08-24T08:02:09.209Z,23.76
2018-08-24T08:03:09.173Z,23.72
2018-08-24T08:04:09.180Z,23.65
2018-08-24T08:05:09.217Z,24.00
2018-08-24T08:06:09.196Z,24.34
2018-08-24T08:07:09.294Z,24.22
2018-08-24T08:08:09.647Z,24.31
2018-08-24T08:09:09.212Z,24.17
2018-08-24T08:10:09.215Z,24.19
2018-08-24T08:11:09.241Z,24.22
2018-08-24T08:12:09.239Z,24.69
2018-08-24T08:13:09.232Z,24.59
2018-08-24T08:14:09.276Z,24.87
2018-08-24T08:15:09.312Z,25.09
2018-08-24T08:16:09.255Z,25.13
2018-08-24T08:17:09.265Z,24.85
2018-08-24T08:18:09.285Z,24.95
2018-08-24T08:19:09.275Z,25.02
2018-08-24T08:20:09.278Z,24.88
2018-08-24T08:21:09.285Z,24.59
2018-08-24T08:22:09.292Z,24.22
2018-08-24T08:23:09.294Z,24.22
2018-08-24T08:24:09.390Z,24.24
2018-08-24T08:25:09.313Z,24.08
2018-08-24T08:26:09.325Z,23.90
2018-08-24T08:27:09.335Z,23.82
2018-08-24T08:28:09.346Z,23.64
2018-08-24T08:29:09.350Z,23.55
2018-08-24T08:30:09.351Z,23.82
2018-08-24T08:31:09.364Z,24.08
2018-08-24T08:32:09.362Z,24.29
2018-08-24T08:33:09.367Z,24.35
2018-08-24T08:34:09.379Z,24.59
2018-08-24T08:35:09.385Z,24.75
2018-08-24T08:36:09.429Z,24.60
2018-08-24T08:37:09.394Z,24.45
2018-08-24T08:38:09.408Z,24.61
2018-08-24T08:39:09.506Z,24.87
2018-08-24T08:40:09.416Z,24.95
2018-08-24T08:41:09.448Z,24.82
2018-08-24T08:42:09.438Z,24.87
2018-08-24T08:43:09.477Z,24.79
2018-08-24T08:44:09.481Z,24.38
2018-08-24T08:45:09.488Z,24.07
2018-08-24T08:46:09.482Z,23.89
2018-08-24T08:47:09.486Z,23.72
2018-08-24T08:48:09.472Z,23.65
2018-08-24T08:49:09.480Z,23.31
2018-08-24T08:50:09.546Z,23.23
2018-08-24T08:51:09.493Z,23.04
2018-08-24T08:52:09.545Z,22.74
2018-08-24T08:53:09.506Z,22.44
2018-08-24T08:54:09.517Z,22.39
2018-08-24T08:55:09.522Z,22.20
2018-08-24T08:56:09.526Z,22.28
2018-08-24T08:57:09.549Z,22.19
2018-08-24T08:58:09.539Z,22.12
2018-08-24T08:59:09.548Z,22.28
2018-08-24T09:00:09.543Z,22.49
2018-08-24T09:01:09.566Z,22.57
2018-08-24T09:02:09.558Z,22.77
2018-08-24T09:03:09.566Z,22.90
2018-08-24T09:04:09.572Z,22.90
2018-08-24T09:05:09.580Z,22.94
2018-08-24T09:06:09.721Z,22.84
2018-08-24T09:07:09.596Z,22.96
2018-08-24T09:08:09.594Z,22.78
2018-08-24T09:09:09.598Z,22.57
2018-08-24T09:10:09.609Z,22.59
2018-08-24T09:11:09.611Z,22.49
2018-08-24T09:12:09.616Z,22.39
2018-08-24T09:13:09.626Z,22.35
2018-08-24T09:14:09.631Z,22.41
2018-08-24T09:15:09.637Z,22.39
2018-08-24T09:16:09.640Z,22.46
2018-08-24T09:17:09.644Z,22.29
2018-08-24T09:18:09.649Z,22.14
2018-08-24T09:19:09.658Z,22.06
2018-08-24T09:20:09.665Z,22.02
2018-08-24T09:21:09.669Z,22.02
2018-08-24T09:22:09.739Z,21.98
2018-08-24T09:23:09.679Z,21.97
2018-08-24T09:24:09.683Z,22.07
2018-08-24T09:25:09.775Z,22.10
2018-08-24T09:26:09.697Z,22.16
2018-08-24T09:27:09.703Z,22.29
2018-08-24T09:28:09.704Z,22.34
2018-08-24T09:29:09.711Z,22.35
2018-08-24T09:30:09.717Z,22.44
2018-08-24T09:31:09.719Z,22.54
2018-08-24T09:32:09.733Z,22.69
2018-08-24T09:33:09.730Z,22.75
2018-08-24T09:34:09.776Z,22.87
2018-08-24T09:35:09.744Z,22.78
2018-08-24T09:36:09.746Z,22.82
2018-08-24T09:37:09.757Z,22.87
2018-08-24T09:38:09.778Z,22.99
2018-08-24T09:39:09.762Z,22.96
2018-08-24T09:40:09.768Z,22.99
2018-08-24T09:41:09.771Z,23.01
2018-08-24T09:42:09.775Z,23.11
2018-08-24T09:43:09.867Z,23.17
2018-08-24T09:44:09.786Z,23.27
2018-08-24T09:45:09.788Z,23.17
2018-08-24T09:46:09.797Z,23.11
2018-08-24T09:47:09.799Z,22.96
2018-08-24T09:48:09.807Z,22.92
2018-08-24T09:49:09.912Z,23.05
2018-08-24T09:50:09.830Z,23.09
2018-08-24T09:51:09.825Z,22.94
2018-08-24T09:52:17.022Z,22.92
2018-08-24T09:54:02.866Z,22.71
2018-08-24T09:55:03.055Z,22.53
2018-08-24T09:56:56.117Z,22.41
2018-08-24T09:57:55.591Z,22.25
2018-08-24T09:58:55.629Z,22.37
2018-08-24T09:59:55.631Z,22.35
2018-08-24T10:00:55.630Z,22.35
2018-08-24T10:03:16.462Z,22.17
2018-08-24T10:04:18.763Z,22.20
2018-08-24T10:06:10.186Z,22.13
2018-08-24T10:07:10.100Z,21.97
2018-08-24T10:09:03.221Z,21.91
2018-08-24T10:10:05.165Z,21.72
2018-08-24T10:11:03.143Z,21.75
2018-08-24T10:12:04.186Z,21.75
2018-08-24T10:13:03.139Z,21.76
2018-08-24T10:14:03.207Z,21.72
2018-08-24T10:15:03.163Z,21.78
2018-08-24T10:16:03.095Z,21.74
2018-08-24T10:17:03.202Z,21.82
2018-08-24T10:18:03.181Z,21.81
2018-08-24T10:19:03.163Z,21.72
2018-08-24T10:20:03.163Z,21.67
2018-08-24T10:21:03.160Z,21.69
2018-08-24T10:22:03.223Z,21.63
2018-08-24T10:23:03.196Z,21.53
2018-08-24T10:24:03.256Z,21.57
2018-08-24T10:25:03.197Z,21.48
2018-08-24T10:26:03.182Z,21.38
2018-08-24T10:27:03.176Z,21.38
2018-08-24T10:28:03.183Z,21.32
2018-08-24T10:29:03.175Z,21.26
2018-08-24T10:30:04.025Z,21.34
2018-08-24T10:31:03.194Z,21.26
2018-08-24T10:32:03.223Z,21.29
2018-08-24T10:33:03.172Z,21.21
2018-08-24T10:34:05.063Z,21.26
2018-08-24T10:35:03.286Z,21.24
2018-08-24T10:36:03.218Z,21.34
2018-08-24T10:37:03.241Z,21.24
2018-08-24T10:38:03.353Z,21.34
2018-08-24T10:39:03.283Z,21.27
2018-08-24T10:40:03.228Z,21.30
2018-08-24T10:41:03.333Z,21.35
2018-08-24T10:42:06.043Z,21.41
2018-08-24T10:43:03.224Z,21.41
2018-08-24T10:44:05.060Z,21.41
2018-08-24T10:45:03.285Z,21.30
2018-08-24T10:46:03.583Z,21.32
2018-08-24T10:47:04.233Z,21.34
2018-08-24T10:48:03.252Z,21.17
2018-08-24T10:49:03.318Z,21.20
2018-08-24T10:50:03.287Z,21.11
2018-08-24T10:51:03.270Z,21.08
2018-08-24T10:52:03.304Z,21.01
2018-08-24T10:53:03.268Z,20.98
2018-08-24T10:54:03.286Z,20.99
2018-08-24T10:55:03.416Z,20.87
2018-08-24T10:56:03.343Z,20.93
2018-08-24T10:57:03.332Z,20.84
2018-08-24T10:58:03.315Z,20.86
2018-08-24T10:59:05.317Z,20.96
2018-08-24T11:00:03.322Z,21.02
2018-08-24T11:01:05.047Z,21.01
2018-08-24T11:02:05.095Z,20.95
2018-08-24T11:03:05.164Z,20.96
2018-08-24T11:04:03.390Z,20.96
2018-08-24T11:05:05.090Z,20.99
2018-08-24T11:06:05.129Z,20.93
2018-08-24T11:07:03.595Z,20.96
2018-08-24T11:08:03.399Z,20.99
2018-08-24T11:09:06.086Z,21.01
2018-08-24T11:10:03.406Z,21.06
2018-08-24T11:11:05.044Z,21.24
2018-08-24T11:12:03.387Z,21.14
2018-08-24T11:13:03.407Z,21.19
2018-08-24T11:14:06.090Z,21.08
2018-08-24T11:15:03.357Z,21.13
2018-08-24T11:16:03.369Z,21.06
2018-08-24T11:17:15.151Z,21.09
2018-08-24T11:18:57.394Z,21.02
2018-08-24T11:19:57.393Z,21.04
2018-08-24T11:20:57.949Z,20.98
2018-08-24T11:21:57.346Z,20.98
2018-08-24T11:22:57.456Z,20.95
2018-08-24T11:24:00.017Z,20.87
2018-08-24T11:28:12.279Z,20.66
2018-08-24T11:29:10.275Z,20.61
2018-08-24T11:30:24.256Z,20.51
2018-08-24T11:31:11.300Z,20.50
2018-08-24T11:32:10.327Z,20.49
2018-08-24T11:33:25.515Z,20.35
2018-08-24T11:34:09.376Z,20.41
2018-08-24T11:35:10.355Z,20.39
2018-08-24T11:37:34.578Z,20.21
2018-08-24T11:38:32.425Z,20.10
2018-08-24T11:39:33.356Z,19.93
2018-08-24T11:41:43.120Z,19.83
2018-08-24T11:42:28.786Z,19.79
2018-08-24T11:44:47.305Z,19.54
2018-08-24T11:45:21.809Z,19.47
2018-08-24T11:46:21.925Z,19.47
2018-08-24T11:47:23.755Z,19.24
2018-08-24T11:48:21.866Z,19.13
2018-08-24T11:49:22.976Z,19.11
2018-08-24T11:50:21.876Z,18.98
2018-08-24T11:51:28.752Z,18.92
2018-08-24T11:52:21.927Z,18.79
2018-08-24T11:53:23.085Z,18.57
2018-08-24T11:54:32.431Z,18.29
2018-08-24T11:55:22.040Z,18.13
2018-08-24T11:56:21.800Z,17.88
2018-08-24T11:57:22.665Z,17.91
2018-08-24T11:58:23.643Z,17.81
2018-08-24T11:59:21.944Z,17.81
2018-08-24T12:00:22.045Z,17.76
2018-08-24T12:01:23.080Z,17.69
2018-08-24T12:02:22.377Z,17.63
2018-08-24T12:05:07.054Z,17.44
2018-08-24T12:06:15.495Z,17.48
2018-08-24T12:08:02.318Z,17.53
2018-08-24T12:10:38.554Z,17.54
2018-08-24T12:12:59.449Z,17.63
2018-08-24T12:14:05.434Z,17.55
2018-08-24T12:15:51.383Z,17.67
2018-08-24T12:16:48.172Z,17.70
2018-08-24T12:17:48.050Z,17.64
2018-08-24T12:18:57.714Z,17.57
2018-08-24T12:21:04.080Z,17.59
2018-08-24T12:21:43.058Z,17.67
2018-08-24T12:22:42.137Z,17.73
2018-08-24T12:23:42.044Z,17.64
2018-08-24T12:24:43.106Z,17.70
2018-08-24T12:25:45.066Z,17.81
2018-08-24T12:28:07.360Z,17.70
2018-08-24T12:29:04.360Z,17.67
2018-08-24T12:30:05.765Z,17.71
2018-08-24T12:31:04.719Z,17.57
2018-08-24T12:32:04.223Z,17.62
2018-08-24T12:33:04.224Z,17.64
2018-08-24T12:34:04.256Z,17.66
2018-08-24T12:35:13.349Z,17.74
2018-08-24T12:36:06.172Z,17.79
2018-08-24T12:37:05.856Z,17.88
2018-08-24T12:39:37.049Z,17.85
2018-08-24T12:40:38.374Z,17.88
2018-08-24T12:41:36.376Z,17.89
2018-08-24T12:42:36.318Z,17.85
2018-08-24T12:43:36.198Z,17.76
2018-08-24T12:44:36.022Z,17.76
2018-08-24T12:45:43.097Z,17.73
2018-08-24T12:47:29.371Z,17.76
2018-08-24T12:48:30.464Z,17.71
2018-08-24T12:49:29.494Z,17.76
2018-08-24T12:50:29.320Z,17.85
2018-08-24T12:51:29.277Z,17.88
2018-08-24T12:52:29.362Z,17.94
2018-08-24T12:53:29.372Z,17.95
2018-08-24T12:54:29.259Z,17.92
2018-08-24T12:55:29.271Z,17.89
2018-08-24T12:56:29.265Z,17.92
2018-08-24T12:57:30.146Z,17.95
2018-08-24T12:58:29.243Z,17.95
2018-08-24T12:59:29.278Z,17.91
2018-08-24T13:00:29.259Z,17.76
2018-08-24T13:01:29.256Z,17.87
2018-08-24T13:02:29.270Z,17.87
2018-08-24T13:03:29.268Z,17.84
2018-08-24T13:04:29.476Z,17.94
2018-08-24T13:05:30.366Z,17.97
2018-08-24T13:06:29.305Z,18.04
2018-08-24T13:07:29.302Z,18.24
2018-08-24T13:08:29.390Z,18.27
2018-08-24T13:09:29.334Z,18.28
2018-08-24T13:10:29.397Z,18.31
2018-08-24T13:11:29.288Z,18.36
2018-08-24T13:12:29.331Z,18.40
2018-08-24T13:13:29.361Z,18.49
2018-08-24T13:14:29.291Z,18.42
2018-08-24T13:15:29.306Z,18.52
2018-08-24T13:16:29.297Z,18.57
2018-08-24T13:17:29.305Z,18.61
2018-08-24T13:18:29.327Z,18.68
2018-08-24T13:19:29.304Z,18.83
2018-08-24T13:20:29.327Z,18.74
2018-08-24T13:21:29.362Z,18.80
2018-08-24T13:22:29.324Z,18.73